createdAt,value
2019-03-20T00:00:47.697Z,1004.96
2019-03-20T00:01:47.649Z,1004.85
2019-03-20T00:02:47.643Z,1004.96
2019-03-20T00:03:47.628Z,1004.98
2019-03-20T00:04:50.027Z,1004.99
2019-03-20T00:05:47.609Z,1004.99
2019-03-20T00:06:47.620Z,1004.98
2019-03-20T00:07:47.592Z,1005.04
2019-03-20T00:08:47.568Z,1005.01
2019-03-20T00:09:47.562Z,1005.03
2019-03-20T00:10:53.646Z,1004.96
2019-03-20T00:11:47.543Z,1004.99
2019-03-20T00:12:47.541Z,1004.99
2019-03-20T00:13:47.517Z,1004.99
2019-03-20T00:14:47.506Z,1005.03
2019-03-20T00:15:47.489Z,1004.98
2019-03-20T00:16:47.478Z,1005.01
2019-03-20T00:17:47.510Z,1004.99
2019-03-20T00:18:47.455Z,1004.98
2019-03-20T00:19:47.449Z,1004.94
2019-03-20T00:20:47.435Z,1005.01
2019-03-20T00:21:47.426Z,1005.00
2019-03-20T00:22:47.408Z,1005.00
2019-03-20T00:23:47.435Z,1004.97
2019-03-20T00:24:47.387Z,1005.00
2019-03-20T00:25:47.371Z,1005.01
2019-03-20T00:26:47.367Z,1005.04
2019-03-20T00:27:47.357Z,1005.04
2019-03-20T00:28:47.347Z,1005.04
2019-03-20T00:29:47.334Z,1005.04
2019-03-20T00:30:47.321Z,1005.10
2019-03-20T00:31:47.303Z,1005.09
2019-03-20T00:32:47.291Z,1005.16
2019-03-20T00:33:47.287Z,1005.11
2019-03-20T00:34:47.282Z,1005.13
2019-03-20T00:35:47.294Z,1005.19
2019-03-20T00:36:47.295Z,1005.20
2019-03-20T00:37:47.236Z,1005.20
2019-03-20T00:38:47.231Z,1005.28
2019-03-20T00:39:47.213Z,1005.20
2019-03-20T00:40:47.199Z,1005.27
2019-03-20T00:41:47.228Z,1005.22
2019-03-20T00:42:53.274Z,1005.23
2019-03-20T00:43:47.168Z,1005.26
2019-03-20T00:44:47.154Z,1005.33
2019-03-20T00:45:47.150Z,1005.36
2019-03-20T00:46:47.175Z,1005.34
2019-03-20T00:47:47.126Z,1005.36
2019-03-20T00:48:47.115Z,1005.36
2019-03-20T00:49:47.103Z,1005.33
2019-03-20T00:50:47.086Z,1005.40
2019-03-20T00:51:47.077Z,1005.31
2019-03-20T00:52:47.077Z,1005.28
2019-03-20T00:53:47.055Z,1005.40
2019-03-20T00:54:47.045Z,1005.32
2019-03-20T00:55:47.032Z,1005.39
2019-03-20T00:56:47.039Z,1005.33
2019-03-20T00:57:47.004Z,1005.41
2019-03-20T00:58:46.995Z,1005.39
2019-03-20T00:59:46.990Z,1005.43
2019-03-20T01:00:46.973Z,1005.42
2019-03-20T01:01:46.964Z,1005.46
2019-03-20T01:02:46.997Z,1005.47
2019-03-20T01:03:46.936Z,1005.50
2019-03-20T01:04:46.928Z,1005.49
2019-03-20T01:05:46.915Z,1005.44
2019-03-20T01:06:46.908Z,1005.48
2019-03-20T01:07:46.894Z,1005.48
2019-03-20T01:08:46.918Z,1005.42
2019-03-20T01:09:46.871Z,1005.47
2019-03-20T01:10:46.861Z,1005.46
2019-03-20T01:11:46.844Z,1005.43
2019-03-20T01:12:46.833Z,1005.49
2019-03-20T01:13:46.818Z,1005.47
2019-03-20T01:14:53.198Z,1005.47
2019-03-20T01:15:46.797Z,1005.44
2019-03-20T01:16:46.791Z,1005.47
2019-03-20T01:17:46.777Z,1005.45
2019-03-20T01:18:46.761Z,1005.46
2019-03-20T01:19:46.772Z,1005.47
2019-03-20T01:20:46.747Z,1005.43
2019-03-20T01:21:46.733Z,1005.47
2019-03-20T01:22:46.715Z,1005.47
2019-03-20T01:23:46.703Z,1005.53
2019-03-20T01:24:46.694Z,1005.49
2019-03-20T01:25:46.711Z,1005.52
2019-03-20T01:26:46.672Z,1005.54
2019-03-20T01:27:46.660Z,1005.56
2019-03-20T01:28:46.649Z,1005.55
2019-03-20T01:29:46.639Z,1005.51
2019-03-20T01:30:46.633Z,1005.52
2019-03-20T01:31:46.653Z,1005.54
2019-03-20T01:32:46.599Z,1005.54
2019-03-20T01:33:46.595Z,1005.53
2019-03-20T01:34:46.585Z,1005.47
2019-03-20T01:35:46.571Z,1005.48
2019-03-20T01:36:46.554Z,1005.49
2019-03-20T01:37:46.556Z,1005.53
2019-03-20T01:38:46.531Z,1005.51
2019-03-20T01:39:46.527Z,1005.53
2019-03-20T01:40:46.519Z,1005.51
2019-03-20T01:41:46.502Z,1005.55
2019-03-20T01:42:46.504Z,1005.53
2019-03-20T01:43:46.474Z,1005.53
2019-03-20T01:44:46.470Z,1005.51
2019-03-20T01:45:46.451Z,1005.51
2019-03-20T01:46:52.843Z,1005.55
2019-03-20T01:47:46.430Z,1005.53
2019-03-20T01:48:46.432Z,1005.59
2019-03-20T01:49:46.432Z,1005.56
2019-03-20T01:50:46.395Z,1005.54
2019-03-20T01:51:46.387Z,1005.55
2019-03-20T01:52:46.370Z,1005.57
2019-03-20T01:53:46.369Z,1005.56
2019-03-20T01:54:46.391Z,1005.64
2019-03-20T01:55:46.340Z,1005.58
2019-03-20T01:56:46.324Z,1005.63
2019-03-20T01:57:46.317Z,1005.60
2019-03-20T01:58:46.308Z,1005.58
2019-03-20T01:59:46.288Z,1005.59
2019-03-20T02:00:46.322Z,1005.58
2019-03-20T02:01:46.269Z,1005.60
2019-03-20T02:02:46.260Z,1005.55
2019-03-20T02:03:46.246Z,1005.58
2019-03-20T02:04:46.234Z,1005.54
2019-03-20T02:05:46.220Z,1005.64
2019-03-20T02:06:46.250Z,1005.60
2019-03-20T02:07:46.197Z,1005.59
2019-03-20T02:08:46.187Z,1005.62
2019-03-20T02:09:46.174Z,1005.63
2019-03-20T02:10:46.165Z,1005.63
2019-03-20T02:11:46.154Z,1005.63
2019-03-20T02:12:46.158Z,1005.64
2019-03-20T02:13:46.134Z,1005.66
2019-03-20T02:14:46.123Z,1005.63
2019-03-20T02:15:46.107Z,1005.61
2019-03-20T02:16:46.097Z,1005.60
2019-03-20T02:17:46.084Z,1005.61
2019-03-20T02:18:52.235Z,1005.66
2019-03-20T02:19:46.075Z,1005.66
2019-03-20T02:20:46.052Z,1005.66
2019-03-20T02:21:46.036Z,1005.61
2019-03-20T02:22:46.029Z,1005.63
2019-03-20T02:23:46.025Z,1005.64
2019-03-20T02:24:46.001Z,1005.64
2019-03-20T02:25:45.992Z,1005.63
2019-03-20T02:26:45.984Z,1005.67
2019-03-20T02:27:45.971Z,1005.64
2019-03-20T02:28:45.990Z,1005.65
2019-03-20T02:29:45.951Z,1005.64
2019-03-20T02:30:45.943Z,1005.65
2019-03-20T02:31:45.925Z,1005.70
2019-03-20T02:32:45.914Z,1005.70
2019-03-20T02:33:45.905Z,1005.67
2019-03-20T02:34:45.903Z,1005.67
2019-03-20T02:35:51.897Z,1005.66
2019-03-20T02:36:46.866Z,1005.69
2019-03-20T02:37:45.864Z,1005.72
2019-03-20T02:38:45.856Z,1005.73
2019-03-20T02:39:45.835Z,1005.66
2019-03-20T02:40:45.817Z,1005.70
2019-03-20T02:41:45.845Z,1005.67
2019-03-20T02:42:45.802Z,1005.65
2019-03-20T02:43:45.795Z,1005.66
2019-03-20T02:44:45.772Z,1005.66
2019-03-20T02:45:45.758Z,1005.67
2019-03-20T02:46:45.749Z,1005.70
2019-03-20T02:47:45.786Z,1005.66
2019-03-20T02:48:45.725Z,1005.72
2019-03-20T02:49:45.714Z,1005.60
2019-03-20T02:50:51.804Z,1005.66
2019-03-20T02:51:45.703Z,1005.72
2019-03-20T02:52:45.682Z,1005.73
2019-03-20T02:53:45.707Z,1005.72
2019-03-20T02:54:45.662Z,1005.76
2019-03-20T02:55:45.647Z,1005.70
2019-03-20T02:56:45.641Z,1005.71
2019-03-20T02:57:45.628Z,1005.67
2019-03-20T02:58:45.613Z,1005.65
2019-03-20T02:59:45.610Z,1005.67
2019-03-20T03:00:45.586Z,1005.65
2019-03-20T03:01:45.579Z,1005.66
2019-03-20T03:02:45.580Z,1005.65
2019-03-20T03:03:45.569Z,1005.64
2019-03-20T03:04:45.578Z,1005.65
2019-03-20T03:05:45.535Z,1005.62
2019-03-20T03:06:45.541Z,1005.61
2019-03-20T03:07:45.507Z,1005.63
2019-03-20T03:08:45.504Z,1005.64
2019-03-20T03:09:45.483Z,1005.65
2019-03-20T03:10:45.484Z,1005.65
2019-03-20T03:11:45.470Z,1005.63
2019-03-20T03:12:45.455Z,1005.65
2019-03-20T03:13:45.441Z,1005.69
2019-03-20T03:14:45.463Z,1005.67
2019-03-20T03:15:45.418Z,1005.66
2019-03-20T03:16:45.402Z,1005.66
2019-03-20T03:17:45.408Z,1005.70
2019-03-20T03:18:45.381Z,1005.64
2019-03-20T03:19:45.372Z,1005.69
2019-03-20T03:20:45.371Z,1005.69
2019-03-20T03:21:45.354Z,1005.69
2019-03-20T03:22:51.731Z,1005.70
2019-03-20T03:23:45.325Z,1005.70
2019-03-20T03:24:45.321Z,1005.67
2019-03-20T03:25:45.345Z,1005.66
2019-03-20T03:26:45.289Z,1005.74
2019-03-20T03:27:45.279Z,1005.72
2019-03-20T03:28:45.265Z,1005.72
2019-03-20T03:29:45.260Z,1005.72
2019-03-20T03:30:45.241Z,1005.67
2019-03-20T03:31:45.267Z,1005.75
2019-03-20T03:32:45.270Z,1005.72
2019-03-20T03:33:45.206Z,1005.70
2019-03-20T03:34:45.209Z,1005.73
2019-03-20T03:35:45.188Z,1005.75
2019-03-20T03:36:45.176Z,1005.77
2019-03-20T03:37:45.178Z,1005.73
2019-03-20T03:38:45.153Z,1005.77
2019-03-20T03:39:45.136Z,1005.73
2019-03-20T03:40:45.123Z,1005.76
2019-03-20T03:41:45.126Z,1005.78
2019-03-20T03:42:45.138Z,1005.69
2019-03-20T03:43:45.105Z,1005.71
2019-03-20T03:44:45.081Z,1005.69
2019-03-20T03:45:45.074Z,1005.70
2019-03-20T03:46:45.065Z,1005.68
2019-03-20T03:47:45.055Z,1005.72
2019-03-20T03:48:45.049Z,1005.70
2019-03-20T03:49:45.021Z,1005.83
2019-03-20T03:50:48.135Z,1005.76
2019-03-20T03:51:44.999Z,1005.76
2019-03-20T03:52:45.013Z,1005.79
2019-03-20T03:53:44.987Z,1005.77
2019-03-20T03:54:51.297Z,1005.72
2019-03-20T03:55:44.956Z,1005.80
2019-03-20T03:56:44.946Z,1005.80
2019-03-20T03:57:44.937Z,1005.78
2019-03-20T03:58:44.943Z,1005.82
2019-03-20T03:59:44.951Z,1005.85
2019-03-20T04:00:44.910Z,1005.83
2019-03-20T04:01:44.885Z,1005.75
2019-03-20T04:02:44.882Z,1005.78
2019-03-20T04:03:44.869Z,1005.82
2019-03-20T04:04:44.853Z,1005.79
2019-03-20T04:05:44.850Z,1005.85
2019-03-20T04:06:44.825Z,1005.82
2019-03-20T04:07:44.814Z,1005.81
2019-03-20T04:08:44.807Z,1005.82
2019-03-20T04:09:44.799Z,1005.80
2019-03-20T04:10:44.806Z,1005.82
2019-03-20T04:11:44.770Z,1005.82
2019-03-20T04:12:44.782Z,1005.83
2019-03-20T04:13:44.750Z,1005.84
2019-03-20T04:14:44.737Z,1005.97
2019-03-20T04:15:44.723Z,1005.92
2019-03-20T04:16:44.725Z,1005.90
2019-03-20T04:17:44.772Z,1005.93
2019-03-20T04:18:44.696Z,1005.87
2019-03-20T04:19:44.680Z,1005.91
2019-03-20T04:20:44.666Z,1005.89
2019-03-20T04:21:44.741Z,1005.98
2019-03-20T04:22:44.643Z,1005.95
2019-03-20T04:23:44.631Z,1005.96
2019-03-20T04:24:44.618Z,1005.96
2019-03-20T04:25:44.606Z,1006.03
2019-03-20T04:26:50.845Z,1006.02
2019-03-20T04:27:44.584Z,1005.95
2019-03-20T04:28:44.572Z,1006.07
2019-03-20T04:29:44.621Z,1006.04
2019-03-20T04:30:44.551Z,1006.08
2019-03-20T04:31:44.543Z,1006.15
2019-03-20T04:32:44.633Z,1006.09
2019-03-20T04:33:44.518Z,1006.16
2019-03-20T04:34:44.502Z,1006.13
2019-03-20T04:35:44.498Z,1006.13
2019-03-20T04:36:48.099Z,1006.10
2019-03-20T04:37:44.467Z,1006.06
2019-03-20T04:38:44.471Z,1006.09
2019-03-20T04:39:44.446Z,1006.03
2019-03-20T04:40:44.439Z,1006.17
2019-03-20T04:41:44.421Z,1006.05
2019-03-20T04:42:44.420Z,1006.08
2019-03-20T04:43:44.412Z,1006.06
2019-03-20T04:44:44.390Z,1006.03
2019-03-20T04:45:44.394Z,1006.10
2019-03-20T04:46:44.404Z,1006.16
2019-03-20T04:47:44.358Z,1006.04
2019-03-20T04:48:44.378Z,1006.12
2019-03-20T04:49:44.334Z,1006.23
2019-03-20T04:50:44.317Z,1006.19
2019-03-20T04:51:44.308Z,1006.10
2019-03-20T04:52:44.291Z,1006.12
2019-03-20T04:53:44.284Z,1006.11
2019-03-20T04:54:44.278Z,1006.08
2019-03-20T04:55:44.259Z,1006.12
2019-03-20T04:56:44.248Z,1006.10
2019-03-20T04:57:45.766Z,1006.07
2019-03-20T04:58:50.611Z,1006.06
2019-03-20T04:59:44.225Z,1006.11
2019-03-20T05:00:44.206Z,1006.13
2019-03-20T05:01:44.192Z,1006.12
2019-03-20T05:02:44.180Z,1006.11
2019-03-20T05:03:44.163Z,1006.12
2019-03-20T05:04:44.154Z,1006.13
2019-03-20T05:05:44.185Z,1006.06
2019-03-20T05:06:44.139Z,1006.18
2019-03-20T05:07:44.121Z,1006.15
2019-03-20T05:08:44.105Z,1006.21
2019-03-20T05:09:44.098Z,1006.15
2019-03-20T05:10:44.089Z,1006.19
2019-03-20T05:11:44.108Z,1006.23
2019-03-20T05:12:44.066Z,1006.21
2019-03-20T05:13:44.049Z,1006.18
2019-03-20T05:14:44.037Z,1006.22
2019-03-20T05:15:44.024Z,1006.24
2019-03-20T05:16:44.025Z,1006.27
2019-03-20T05:17:44.037Z,1006.24
2019-03-20T05:18:44.004Z,1006.26
2019-03-20T05:19:43.977Z,1006.25
2019-03-20T05:20:43.970Z,1006.30
2019-03-20T05:21:43.958Z,1006.23
2019-03-20T05:22:43.945Z,1006.23
2019-03-20T05:23:43.972Z,1006.31
2019-03-20T05:24:43.921Z,1006.18
2019-03-20T05:25:43.913Z,1006.33
2019-03-20T05:26:43.898Z,1006.19
2019-03-20T05:27:43.886Z,1006.30
2019-03-20T05:28:43.878Z,1006.20
2019-03-20T05:29:43.899Z,1006.16
2019-03-20T05:30:49.943Z,1006.18
2019-03-20T05:31:43.838Z,1006.15
2019-03-20T05:32:43.831Z,1006.22
2019-03-20T05:33:43.821Z,1006.27
2019-03-20T05:34:43.806Z,1006.36
2019-03-20T05:35:43.829Z,1006.27
2019-03-20T05:36:43.790Z,1006.27
2019-03-20T05:37:43.780Z,1006.30
2019-03-20T05:38:43.765Z,1006.23
2019-03-20T05:39:43.754Z,1006.26
2019-03-20T05:40:43.737Z,1006.23
2019-03-20T05:41:43.729Z,1006.23
2019-03-20T05:42:43.714Z,1006.23
2019-03-20T05:43:43.698Z,1006.30
2019-03-20T05:44:43.689Z,1006.41
2019-03-20T05:45:43.694Z,1006.39
2019-03-20T05:46:43.667Z,1006.28
2019-03-20T05:47:43.659Z,1006.33
2019-03-20T05:48:43.647Z,1006.31
2019-03-20T05:49:43.629Z,1006.33
2019-03-20T05:50:43.620Z,1006.29
2019-03-20T05:51:43.615Z,1006.31
2019-03-20T05:52:43.602Z,1006.46
2019-03-20T05:53:43.587Z,1006.44
2019-03-20T05:54:43.572Z,1006.40
2019-03-20T05:55:43.566Z,1006.31
2019-03-20T05:56:43.550Z,1006.34
2019-03-20T05:57:43.549Z,1006.39
2019-03-20T05:58:43.531Z,1006.35
2019-03-20T05:59:43.516Z,1006.41
2019-03-20T06:00:43.512Z,1006.37
2019-03-20T06:01:43.497Z,1006.37
2019-03-20T06:02:49.876Z,1006.32
2019-03-20T06:03:43.469Z,1006.45
2019-03-20T06:04:43.467Z,1006.22
2019-03-20T06:05:43.447Z,1006.22
2019-03-20T06:06:43.442Z,1006.36
2019-03-20T06:07:43.424Z,1006.44
2019-03-20T06:08:43.429Z,1006.23
2019-03-20T06:09:43.400Z,1006.23
2019-03-20T06:10:43.397Z,1006.25
2019-03-20T06:11:43.378Z,1006.22
2019-03-20T06:12:43.372Z,1006.18
2019-03-20T06:13:43.394Z,1006.19
2019-03-20T06:14:43.349Z,1006.19
2019-03-20T06:15:43.330Z,1006.19
2019-03-20T06:16:43.325Z,1006.18
2019-03-20T06:17:43.315Z,1006.25
2019-03-20T06:18:43.295Z,1006.21
2019-03-20T06:19:43.305Z,1006.35
2019-03-20T06:20:43.283Z,1006.33
2019-03-20T06:21:43.264Z,1006.22
2019-03-20T06:22:43.252Z,1006.36
2019-03-20T06:23:43.243Z,1006.32
2019-03-20T06:24:43.233Z,1006.34
2019-03-20T06:25:43.253Z,1006.29
2019-03-20T06:26:43.208Z,1006.30
2019-03-20T06:27:43.202Z,1006.32
2019-03-20T06:28:43.179Z,1006.33
2019-03-20T06:29:43.174Z,1006.35
2019-03-20T06:30:43.162Z,1006.33
2019-03-20T06:31:43.217Z,1006.36
2019-03-20T06:32:43.141Z,1006.36
2019-03-20T06:33:43.131Z,1006.37
2019-03-20T06:34:49.509Z,1006.30
2019-03-20T06:35:43.109Z,1006.30
2019-03-20T06:36:43.090Z,1006.29
2019-03-20T06:37:43.082Z,1006.30
2019-03-20T06:38:43.067Z,1006.29
2019-03-20T06:39:43.059Z,1006.33
2019-03-20T06:40:43.043Z,1006.32
2019-03-20T06:41:43.036Z,1006.30
2019-03-20T06:42:43.398Z,1006.29
2019-03-20T06:43:43.010Z,1006.42
2019-03-20T06:44:42.996Z,1006.34
2019-03-20T06:45:42.988Z,1006.33
2019-03-20T06:46:42.987Z,1006.34
2019-03-20T06:47:42.967Z,1006.32
2019-03-20T06:48:42.959Z,1006.37
2019-03-20T06:49:42.936Z,1006.29
2019-03-20T06:50:42.926Z,1006.42
2019-03-20T06:51:42.911Z,1006.33
2019-03-20T06:52:42.904Z,1006.30
2019-03-20T06:53:42.902Z,1006.30
2019-03-20T06:54:42.880Z,1006.38
2019-03-20T06:55:42.866Z,1006.29
2019-03-20T06:56:42.855Z,1006.19
2019-03-20T06:57:42.842Z,1006.23
2019-03-20T06:58:42.870Z,1006.36
2019-03-20T06:59:42.825Z,1006.15
2019-03-20T07:00:42.813Z,1006.27
2019-03-20T07:01:42.798Z,1006.26
2019-03-20T07:02:42.790Z,1006.32
2019-03-20T07:03:42.777Z,1006.17
2019-03-20T07:04:42.774Z,1006.20
2019-03-20T07:05:42.753Z,1006.36
2019-03-20T07:06:48.832Z,1006.32
2019-03-20T07:07:44.374Z,1006.34
2019-03-20T07:08:42.722Z,1006.31
2019-03-20T07:09:42.726Z,1006.40
2019-03-20T07:10:42.692Z,1006.34
2019-03-20T07:11:42.678Z,1006.32
2019-03-20T07:12:42.674Z,1006.33
2019-03-20T07:13:42.657Z,1006.28
2019-03-20T07:14:42.647Z,1006.31
2019-03-20T07:15:42.683Z,1006.29
2019-03-20T07:16:42.622Z,1006.28
2019-03-20T07:17:42.610Z,1006.33
2019-03-20T07:18:42.601Z,1006.34
2019-03-20T07:19:42.595Z,1006.25
2019-03-20T07:20:42.579Z,1006.28
2019-03-20T07:21:42.601Z,1006.34
2019-03-20T07:22:42.554Z,1006.34
2019-03-20T07:23:42.550Z,1006.42
2019-03-20T07:24:42.529Z,1006.33
2019-03-20T07:25:42.519Z,1006.40
2019-03-20T07:26:42.509Z,1006.33
2019-03-20T07:27:42.517Z,1006.38
2019-03-20T07:28:42.490Z,1006.33
2019-03-20T07:29:42.473Z,1006.38
2019-03-20T07:30:42.466Z,1006.32
2019-03-20T07:31:42.457Z,1006.44
2019-03-20T07:32:42.442Z,1006.43
2019-03-20T07:33:42.439Z,1006.44
2019-03-20T07:34:42.422Z,1006.43
2019-03-20T07:35:42.411Z,1006.39
2019-03-20T07:36:42.397Z,1006.34
2019-03-20T07:37:42.387Z,1006.40
2019-03-20T07:38:48.968Z,1006.33
2019-03-20T07:39:42.361Z,1006.35
2019-03-20T07:40:42.358Z,1006.38
2019-03-20T07:41:42.341Z,1006.40
2019-03-20T07:42:42.378Z,1006.38
2019-03-20T07:43:42.320Z,1006.39
2019-03-20T07:44:42.311Z,1006.27
2019-03-20T07:45:42.294Z,1006.38
2019-03-20T07:46:42.282Z,1006.44
2019-03-20T07:47:42.326Z,1006.39
2019-03-20T07:48:42.257Z,1006.45
2019-03-20T07:49:42.262Z,1006.32
2019-03-20T07:50:42.235Z,1006.37
2019-03-20T07:51:42.218Z,1006.36
2019-03-20T07:52:42.209Z,1006.39
2019-03-20T07:53:42.197Z,1006.39
2019-03-20T07:54:42.183Z,1006.35
2019-03-20T07:55:42.181Z,1006.32
2019-03-20T07:56:42.166Z,1006.47
2019-03-20T07:57:42.160Z,1006.47
2019-03-20T07:58:42.135Z,1006.30
2019-03-20T07:59:42.122Z,1006.41
2019-03-20T08:00:42.157Z,1006.32
2019-03-20T08:01:42.106Z,1006.36
2019-03-20T08:02:42.090Z,1006.36
2019-03-20T08:03:42.084Z,1006.39
2019-03-20T08:04:42.064Z,1006.35
2019-03-20T08:05:42.054Z,1006.41
2019-03-20T08:06:42.080Z,1006.37
2019-03-20T08:07:42.032Z,1006.39
2019-03-20T08:08:42.021Z,1006.41
2019-03-20T08:09:42.012Z,1006.39
2019-03-20T08:10:48.391Z,1006.36
2019-03-20T08:11:41.998Z,1006.35
2019-03-20T08:12:41.982Z,1006.32
2019-03-20T08:13:41.967Z,1006.38
2019-03-20T08:14:41.954Z,1006.34
2019-03-20T08:15:41.944Z,1006.32
2019-03-20T08:16:41.929Z,1006.38
2019-03-20T08:17:41.926Z,1006.34
2019-03-20T08:18:41.908Z,1006.30
2019-03-20T08:19:41.891Z,1006.31
2019-03-20T08:20:41.888Z,1006.29
2019-03-20T08:21:41.871Z,1006.29
2019-03-20T08:22:41.897Z,1006.31
2019-03-20T08:23:41.852Z,1006.34
2019-03-20T08:24:41.837Z,1006.27
2019-03-20T08:25:41.847Z,1006.26
2019-03-20T08:26:41.818Z,1006.38
2019-03-20T08:27:41.805Z,1006.28
2019-03-20T08:28:41.811Z,1006.43
2019-03-20T08:29:41.798Z,1006.26
2019-03-20T08:30:41.763Z,1006.33
2019-03-20T08:31:41.759Z,1006.33
2019-03-20T08:32:41.749Z,1006.28
2019-03-20T08:33:41.734Z,1006.22
2019-03-20T08:34:41.740Z,1006.30
2019-03-20T08:35:41.711Z,1006.27
2019-03-20T08:36:41.702Z,1006.21
2019-03-20T08:37:41.684Z,1006.22
2019-03-20T08:38:41.679Z,1006.19
2019-03-20T08:39:41.665Z,1006.23
2019-03-20T08:40:41.660Z,1006.20
2019-03-20T08:41:41.636Z,1006.16
2019-03-20T08:42:48.023Z,1006.16
2019-03-20T08:43:41.621Z,1006.09
2019-03-20T08:44:41.619Z,1006.15
2019-03-20T08:45:41.591Z,1006.11
2019-03-20T08:46:41.583Z,1006.12
2019-03-20T08:47:41.567Z,1006.09
2019-03-20T08:48:41.564Z,1006.04
2019-03-20T08:49:41.732Z,1006.07
2019-03-20T08:50:41.580Z,1006.10
2019-03-20T08:51:41.519Z,1006.09
2019-03-20T08:52:41.515Z,1006.07
2019-03-20T08:53:41.505Z,1006.05
2019-03-20T08:54:41.487Z,1006.04
2019-03-20T08:55:41.487Z,1006.01
2019-03-20T08:56:41.461Z,1006.15
2019-03-20T08:57:41.454Z,1006.01
2019-03-20T08:58:41.439Z,1006.01
2019-03-20T08:59:41.432Z,1006.05
2019-03-20T09:00:41.458Z,1006.11
2019-03-20T09:01:41.409Z,1006.06
2019-03-20T09:02:41.395Z,1006.01
2019-03-20T09:03:41.388Z,1006.04
2019-03-20T09:04:41.368Z,1006.01
2019-03-20T09:05:41.364Z,1006.16
2019-03-20T09:06:41.390Z,1006.18
2019-03-20T09:07:47.240Z,1006.15
2019-03-20T09:08:42.327Z,1006.13
2019-03-20T09:09:41.314Z,1006.09
2019-03-20T09:10:41.303Z,1006.11
2019-03-20T09:11:41.295Z,1006.13
2019-03-20T09:12:41.284Z,1006.11
2019-03-20T09:13:41.266Z,1006.12
2019-03-20T09:14:47.347Z,1006.15
2019-03-20T09:15:41.239Z,1006.16
2019-03-20T09:16:41.236Z,1006.12
2019-03-20T09:17:41.230Z,1006.17
2019-03-20T09:18:41.209Z,1006.33
2019-03-20T09:19:41.200Z,1006.20
2019-03-20T09:20:41.186Z,1006.17
2019-03-20T09:21:41.173Z,1006.15
2019-03-20T09:22:41.203Z,1006.07
2019-03-20T09:23:41.150Z,1006.11
2019-03-20T09:24:41.139Z,1006.16
2019-03-20T09:25:41.127Z,1006.20
2019-03-20T09:26:41.117Z,1006.15
2019-03-20T09:27:41.106Z,1006.24
2019-03-20T09:28:41.122Z,1006.10
2019-03-20T09:29:41.297Z,1006.17
2019-03-20T09:30:41.067Z,1006.30
2019-03-20T09:31:41.059Z,1006.28
2019-03-20T09:32:41.046Z,1006.17
2019-03-20T09:33:41.033Z,1006.19
2019-03-20T09:34:41.071Z,1006.16
2019-03-20T09:35:41.011Z,1006.15
2019-03-20T09:36:43.269Z,1006.13
2019-03-20T09:37:51.325Z,1006.19
2019-03-20T09:38:43.799Z,1006.19
2019-03-20T09:39:40.967Z,1006.16
2019-03-20T09:40:40.954Z,1006.10
2019-03-20T09:41:40.940Z,1006.11
2019-03-20T09:42:40.923Z,1006.08
2019-03-20T09:43:40.911Z,1006.10
2019-03-20T09:44:40.905Z,1006.13
2019-03-20T09:45:40.897Z,1006.05
2019-03-20T09:46:47.486Z,1006.09
2019-03-20T09:47:40.866Z,1006.06
2019-03-20T09:48:40.854Z,1006.08
2019-03-20T09:49:40.849Z,1006.07
2019-03-20T09:50:40.834Z,1006.11
2019-03-20T09:51:40.861Z,1006.10
2019-03-20T09:52:40.809Z,1006.06
2019-03-20T09:53:40.800Z,1006.12
2019-03-20T09:54:40.783Z,1006.02
2019-03-20T09:55:40.771Z,1006.02
2019-03-20T09:56:40.760Z,1006.02
2019-03-20T09:57:40.755Z,1006.06
2019-03-20T09:58:40.741Z,1005.99
2019-03-20T09:59:40.725Z,1005.97
2019-03-20T10:00:40.722Z,1005.97
2019-03-20T10:01:40.701Z,1006.00
2019-03-20T10:02:40.732Z,1006.04
2019-03-20T10:03:40.681Z,1005.90
2019-03-20T10:04:40.667Z,1005.93
2019-03-20T10:05:40.656Z,1005.88
2019-03-20T10:06:40.645Z,1005.98
2019-03-20T10:07:40.630Z,1005.92
2019-03-20T10:08:40.660Z,1005.92
2019-03-20T10:09:40.608Z,1005.86
2019-03-20T10:10:40.601Z,1005.82
2019-03-20T10:11:40.593Z,1005.85
2019-03-20T10:12:40.574Z,1005.83
2019-03-20T10:13:40.564Z,1005.83
2019-03-20T10:14:40.564Z,1005.85
2019-03-20T10:15:40.540Z,1005.81
2019-03-20T10:16:40.531Z,1005.88
2019-03-20T10:17:40.515Z,1005.92
2019-03-20T10:18:46.601Z,1005.93
2019-03-20T10:19:40.533Z,1005.83
2019-03-20T10:20:40.482Z,1005.84
2019-03-20T10:21:40.474Z,1005.83
2019-03-20T10:22:40.466Z,1005.77
2019-03-20T10:23:40.451Z,1005.69
2019-03-20T10:24:40.439Z,1005.73
2019-03-20T10:25:44.511Z,1005.70
2019-03-20T10:26:40.416Z,1005.68
2019-03-20T10:27:40.401Z,1005.66
2019-03-20T10:28:40.393Z,1005.70
2019-03-20T10:29:40.384Z,1005.69
2019-03-20T10:30:40.404Z,1005.68
2019-03-20T10:31:40.364Z,1005.73
2019-03-20T10:32:40.343Z,1005.69
2019-03-20T10:33:40.331Z,1005.72
2019-03-20T10:34:40.324Z,1005.75
2019-03-20T10:35:49.923Z,1005.76
2019-03-20T10:36:41.345Z,1005.75
2019-03-20T10:37:40.287Z,1005.74
2019-03-20T10:38:40.318Z,1005.80
2019-03-20T10:39:40.263Z,1005.84
2019-03-20T10:40:40.251Z,1005.78
2019-03-20T10:41:40.247Z,1005.78
2019-03-20T10:42:40.254Z,1005.70
2019-03-20T10:43:40.214Z,1005.82
2019-03-20T10:44:40.209Z,1005.80
2019-03-20T10:45:40.209Z,1005.82
2019-03-20T10:46:40.183Z,1005.84
2019-03-20T10:47:40.174Z,1005.85
2019-03-20T10:48:40.209Z,1005.82
2019-03-20T10:49:40.148Z,1005.82
2019-03-20T10:50:46.533Z,1005.72
2019-03-20T10:51:40.125Z,1005.77
2019-03-20T10:52:40.114Z,1005.81
2019-03-20T10:53:40.105Z,1005.85
2019-03-20T10:54:40.095Z,1005.83
2019-03-20T10:55:40.078Z,1005.79
2019-03-20T10:56:40.074Z,1005.86
2019-03-20T10:57:40.058Z,1005.80
2019-03-20T10:58:40.045Z,1005.72
2019-03-20T10:59:40.052Z,1005.71
2019-03-20T11:00:40.854Z,1005.67
2019-03-20T11:01:42.833Z,1005.67
2019-03-20T11:02:39.998Z,1005.70
2019-03-20T11:03:39.986Z,1005.71
2019-03-20T11:04:39.973Z,1005.69
2019-03-20T11:05:40.002Z,1005.72
2019-03-20T11:06:39.953Z,1005.56
2019-03-20T11:07:39.938Z,1005.74
2019-03-20T11:08:39.929Z,1005.78
2019-03-20T11:09:39.916Z,1005.67
2019-03-20T11:10:39.908Z,1005.68
2019-03-20T11:11:39.930Z,1005.72
2019-03-20T11:12:39.885Z,1005.70
2019-03-20T11:13:39.877Z,1005.64
2019-03-20T11:14:39.861Z,1005.75
2019-03-20T11:15:39.850Z,1005.76
2019-03-20T11:16:39.847Z,1005.69
2019-03-20T11:17:39.852Z,1005.59
2019-03-20T11:18:39.819Z,1005.50
2019-03-20T11:19:39.816Z,1005.54
2019-03-20T11:20:39.798Z,1005.65
2019-03-20T11:21:39.784Z,1005.58
2019-03-20T11:22:46.537Z,1005.56
2019-03-20T11:23:39.755Z,1005.52
2019-03-20T11:24:39.759Z,1005.49
2019-03-20T11:25:39.737Z,1005.49
2019-03-20T11:26:39.732Z,1005.46
2019-03-20T11:27:39.711Z,1005.46
2019-03-20T11:28:39.742Z,1005.44
2019-03-20T11:29:39.691Z,1005.39
2019-03-20T11:30:39.680Z,1005.49
2019-03-20T11:31:39.672Z,1005.44
2019-03-20T11:32:40.103Z,1005.43
2019-03-20T11:33:39.642Z,1005.37
2019-03-20T11:34:39.640Z,1005.37
2019-03-20T11:35:41.482Z,1005.36
2019-03-20T11:36:39.612Z,1005.37
2019-03-20T11:37:39.595Z,1005.38
2019-03-20T11:38:39.589Z,1005.38
2019-03-20T11:39:39.599Z,1005.29
2019-03-20T11:40:39.559Z,1005.30
2019-03-20T11:41:39.571Z,1005.37
2019-03-20T11:42:40.846Z,1005.37
2019-03-20T11:43:39.525Z,1005.34
2019-03-20T11:44:39.517Z,1005.42
2019-03-20T11:45:39.543Z,1005.37
2019-03-20T11:46:39.497Z,1005.34
2019-03-20T11:47:39.480Z,1005.33
2019-03-20T11:48:39.477Z,1005.29
2019-03-20T11:49:39.463Z,1005.30
2019-03-20T11:50:39.454Z,1005.34
2019-03-20T11:51:39.448Z,1005.32
2019-03-20T11:52:39.428Z,1005.25
2019-03-20T11:53:39.418Z,1005.32
2019-03-20T11:54:45.501Z,1005.33
2019-03-20T11:55:39.391Z,1005.27
2019-03-20T11:56:39.422Z,1005.22
2019-03-20T11:57:39.365Z,1005.24
2019-03-20T11:58:39.361Z,1005.24
2019-03-20T11:59:39.342Z,1005.25
2019-03-20T12:00:39.334Z,1005.17
2019-03-20T12:01:39.325Z,1005.16
2019-03-20T12:02:39.321Z,1005.23
2019-03-20T12:03:39.295Z,1005.17
2019-03-20T12:04:39.285Z,1005.18
2019-03-20T12:05:39.278Z,1005.15